sensor_id;sensor_type;location;lat;lon;timestamp;P1;durP1;ratioP1;P2;durP2;ratioP2
14760;SDS011;7472;45.396;5.272;2023-10-19T00:00:57;5.38;;;1.92;;
14760;SDS011;7472;45.396;5.272;2023-10-19T00:03:25;1.60;;;1.50;;
14760;SDS011;7472;45.396;5.272;2023-10-19T00:05:53;2.05;;;1.90;;
14760;SDS011;7472;45.396;5.272;2023-10-19T00:08:21;2.72;;;2.53;;
14760;SDS011;7472;45.396;5.272;2023-10-19T00:10:49;2.50;;;2.30;;
14760;SDS011;7472;45.396;5.272;2023-10-19T00:13:27;2.60;;;2.28;;
14760;SDS011;7472;45.396;5.272;2023-10-19T00:15:55;2.13;;;1.40;;
14760;SDS011;7472;45.396;5.272;2023-10-19T00:18:24;2.10;;;1.83;;
14760;SDS011;7472;45.396;5.272;2023-10-19T00:20:51;1.73;;;1.63;;
14760;SDS011;7472;45.396;5.272;2023-10-19T00:23:24;1.40;;;1.17;;
14760;SDS011;7472;45.396;5.272;2023-10-19T00:25:54;2.35;;;1.80;;
14760;SDS011;7472;45.396;5.272;2023-10-19T00:28:22;2.33;;;1.60;;
14760;SDS011;7472;45.396;5.272;2023-10-19T00:30:51;1.35;;;1.20;;
14760;SDS011;7472;45.396;5.272;2023-10-19T00:33:25;2.92;;;1.20;;
14760;SDS011;7472;45.396;5.272;2023-10-19T00:35:55;1.60;;;1.50;;
14760;SDS011;7472;45.396;5.272;2023-10-19T00:38:32;2.38;;;1.13;;
14760;SDS011;7472;45.396;5.272;2023-10-19T00:41:06;1.40;;;1.30;;
14760;SDS011;7472;45.396;5.272;2023-10-19T00:43:38;2.15;;;1.20;;
14760;SDS011;7472;45.396;5.272;2023-10-19T00:46:09;1.40;;;1.30;;
14760;SDS011;7472;45.396;5.272;2023-10-19T00:48:43;1.67;;;1.58;;
14760;SDS011;7472;45.396;5.272;2023-10-19T00:51:12;2.83;;;1.35;;
14760;SDS011;7472;45.396;5.272;2023-10-19T00:53:52;2.53;;;1.13;;
14760;SDS011;7472;45.396;5.272;2023-10-19T00:56:20;2.30;;;1.05;;
14760;SDS011;7472;45.396;5.272;2023-10-19T00:58:49;2.65;;;1.25;;
14760;SDS011;7472;45.396;5.272;2023-10-19T01:01:32;1.60;;;1.50;;
14760;SDS011;7472;45.396;5.272;2023-10-19T01:04:07;2.25;;;1.30;;
14760;SDS011;7472;45.396;5.272;2023-10-19T01:06:39;1.52;;;1.08;;
14760;SDS011;7472;45.396;5.272;2023-10-19T01:09:09;1.50;;;1.40;;
14760;SDS011;7472;45.396;5.272;2023-10-19T01:11:40;2.10;;;1.00;;
14760;SDS011;7472;45.396;5.272;2023-10-19T01:14:20;0.88;;;0.88;;
14760;SDS011;7472;45.396;5.272;2023-10-19T01:16:48;1.30;;;0.93;;
14760;SDS011;7472;45.396;5.272;2023-10-19T01:19:17;3.30;;;1.10;;
14760;SDS011;7472;45.396;5.272;2023-10-19T01:21:45;2.13;;;1.25;;
14760;SDS011;7472;45.396;5.272;2023-10-19T01:24:17;1.50;;;1.40;;
14760;SDS011;7472;45.396;5.272;2023-10-19T01:26:51;1.63;;;1.42;;
14760;SDS011;7472;45.396;5.272;2023-10-19T01:29:20;2.08;;;1.60;;
14760;SDS011;7472;45.396;5.272;2023-10-19T01:31:52;3.45;;;1.58;;
14760;SDS011;7472;45.396;5.272;2023-10-19T01:34:30;1.80;;;1.70;;
14760;SDS011;7472;45.396;5.272;2023-10-19T01:36:58;7.32;;;2.58;;
14760;SDS011;7472;45.396;5.272;2023-10-19T01:39:29;18.25;;;2.95;;
14760;SDS011;7472;45.396;5.272;2023-10-19T01:41:56;3.53;;;2.67;;
14760;SDS011;7472;45.396;5.272;2023-10-19T01:44:23;42.38;;;3.90;;
14760;SDS011;7472;45.396;5.272;2023-10-19T01:46:50;5.47;;;2.83;;
14760;SDS011;7472;45.396;5.272;2023-10-19T01:49:17;13.38;;;4.63;;
14760;SDS011;7472;45.396;5.272;2023-10-19T01:51:51;3.22;;;2.40;;
14760;SDS011;7472;45.396;5.272;2023-10-19T01:54:19;6.50;;;2.85;;
14760;SDS011;7472;45.396;5.272;2023-10-19T01:56:51;16.90;;;3.65;;
14760;SDS011;7472;45.396;5.272;2023-10-19T01:59:20;4.93;;;3.30;;
14760;SDS011;7472;45.396;5.272;2023-10-19T02:01:47;10.52;;;3.10;;
14760;SDS011;7472;45.396;5.272;2023-10-19T02:04:14;3.75;;;2.67;;
14760;SDS011;7472;45.396;5.272;2023-10-19T02:06:40;4.57;;;2.50;;
14760;SDS011;7472;45.396;5.272;2023-10-19T02:09:11;4.90;;;2.92;;
14760;SDS011;7472;45.396;5.272;2023-10-19T02:11:47;2.92;;;2.63;;
14760;SDS011;7472;45.396;5.272;2023-10-19T02:14:16;5.10;;;2.47;;
14760;SDS011;7472;45.396;5.272;2023-10-19T02:16:45;16.50;;;2.75;;
14760;SDS011;7472;45.396;5.272;2023-10-19T02:19:12;2.05;;;1.90;;
14760;SDS011;7472;45.396;5.272;2023-10-19T02:21:40;2.58;;;2.38;;
14760;SDS011;7472;45.396;5.272;2023-10-19T02:24:07;2.30;;;2.10;;
14760;SDS011;7472;45.396;5.272;2023-10-19T02:26:35;2.58;;;1.98;;
14760;SDS011;7472;45.396;5.272;2023-10-19T02:29:03;2.97;;;1.83;;
14760;SDS011;7472;45.396;5.272;2023-10-19T02:31:34;1.85;;;1.63;;
14760;SDS011;7472;45.396;5.272;2023-10-19T02:34:03;1.70;;;1.50;;
14760;SDS011;7472;45.396;5.272;2023-10-19T02:36:31;2.58;;;1.50;;
14760;SDS011;7472;45.396;5.272;2023-10-19T02:38:59;2.28;;;1.65;;
14760;SDS011;7472;45.396;5.272;2023-10-19T02:41:32;1.67;;;1.27;;
14760;SDS011;7472;45.396;5.272;2023-10-19T02:44:00;1.30;;;1.20;;
14760;SDS011;7472;45.396;5.272;2023-10-19T02:46:35;1.35;;;1.25;;
14760;SDS011;7472;45.396;5.272;2023-10-19T02:49:04;0.93;;;0.90;;
14760;SDS011;7472;45.396;5.272;2023-10-19T02:51:35;1.77;;;0.90;;
14760;SDS011;7472;45.396;5.272;2023-10-19T02:54:03;3.90;;;1.17;;
14760;SDS011;7472;45.396;5.272;2023-10-19T02:56:31;1.55;;;1.23;;
14760;SDS011;7472;45.396;5.272;2023-10-19T02:59:00;1.63;;;1.50;;
14760;SDS011;7472;45.396;5.272;2023-10-19T03:01:29;2.55;;;1.88;;
14760;SDS011;7472;45.396;5.272;2023-10-19T03:03:58;2.83;;;1.98;;
14760;SDS011;7472;45.396;5.272;2023-10-19T03:06:25;13.30;;;2.60;;
14760;SDS011;7472;45.396;5.272;2023-10-19T03:08:56;8.63;;;2.13;;
14760;SDS011;7472;45.396;5.272;2023-10-19T03:11:23;4.40;;;2.20;;
14760;SDS011;7472;45.396;5.272;2023-10-19T03:13:50;82.55;;;6.93;;
14760;SDS011;7472;45.396;5.272;2023-10-19T03:16:17;13.02;;;3.33;;
14760;SDS011;7472;45.396;5.272;2023-10-19T03:18:45;6.93;;;2.75;;
14760;SDS011;7472;45.396;5.272;2023-10-19T03:21:13;38.13;;;6.45;;
14760;SDS011;7472;45.396;5.272;2023-10-19T03:23:41;33.05;;;4.72;;
14760;SDS011;7472;45.396;5.272;2023-10-19T03:26:08;102.07;;;8.50;;
14760;SDS011;7472;45.396;5.272;2023-10-19T03:28:47;41.40;;;5.28;;
14760;SDS011;7472;45.396;5.272;2023-10-19T03:31:14;24.02;;;6.57;;
14760;SDS011;7472;45.396;5.272;2023-10-19T03:33:44;7.55;;;4.85;;
14760;SDS011;7472;45.396;5.272;2023-10-19T03:36:15;7.93;;;6.63;;
14760;SDS011;7472;45.396;5.272;2023-10-19T03:38:43;7.18;;;6.47;;
14760;SDS011;7472;45.396;5.272;2023-10-19T03:41:11;7.47;;;6.78;;
14760;SDS011;7472;45.396;5.272;2023-10-19T03:43:39;9.85;;;6.43;;
14760;SDS011;7472;45.396;5.272;2023-10-19T03:46:07;7.10;;;6.40;;
14760;SDS011;7472;45.396;5.272;2023-10-19T03:48:47;6.55;;;5.85;;
14760;SDS011;7472;45.396;5.272;2023-10-19T03:51:16;9.95;;;6.95;;
14760;SDS011;7472;45.396;5.272;2023-10-19T03:53:43;7.18;;;6.47;;
14760;SDS011;7472;45.396;5.272;2023-10-19T03:56:19;7.85;;;6.18;;
14760;SDS011;7472;45.396;5.272;2023-10-19T03:58:47;6.05;;;5.55;;
14760;SDS011;7472;45.396;5.272;2023-10-19T04:01:16;7.07;;;5.53;;
14760;SDS011;7472;45.396;5.272;2023-10-19T04:03:45;7.55;;;5.10;;
14760;SDS011;7472;45.396;5.272;2023-10-19T04:06:12;8.07;;;5.93;;
14760;SDS011;7472;45.396;5.272;2023-10-19T04:08:41;8.88;;;6.50;;
14760;SDS011;7472;45.396;5.272;2023-10-19T04:11:15;6.63;;;5.90;;
14760;SDS011;7472;45.396;5.272;2023-10-19T04:13:49;10.20;;;6.30;;
14760;SDS011;7472;45.396;5.272;2023-10-19T04:16:18;5.80;;;5.05;;
14760;SDS011;7472;45.396;5.272;2023-10-19T04:18:46;8.13;;;6.43;;
14760;SDS011;7472;45.396;5.272;2023-10-19T04:21:14;6.90;;;6.22;;
14760;SDS011;7472;45.396;5.272;2023-10-19T04:23:43;6.43;;;5.82;;
14760;SDS011;7472;45.396;5.272;2023-10-19T04:26:11;6.07;;;5.25;;
14760;SDS011;7472;45.396;5.272;2023-10-19T04:28:43;4.85;;;3.85;;
14760;SDS011;7472;45.396;5.272;2023-10-19T04:31:14;8.00;;;4.07;;
14760;SDS011;7472;45.396;5.272;2023-10-19T04:33:42;3.10;;;2.80;;
14760;SDS011;7472;45.396;5.272;2023-10-19T04:36:15;4.03;;;3.25;;
14760;SDS011;7472;45.396;5.272;2023-10-19T04:38:47;4.03;;;3.42;;
14760;SDS011;7472;45.396;5.272;2023-10-19T04:41:16;4.07;;;2.72;;
14760;SDS011;7472;45.396;5.272;2023-10-19T04:43:43;2.92;;;2.63;;
14760;SDS011;7472;45.396;5.272;2023-10-19T04:46:15;2.58;;;2.38;;
14760;SDS011;7472;45.396;5.272;2023-10-19T04:48:44;1.92;;;1.77;;
14760;SDS011;7472;45.396;5.272;2023-10-19T04:51:11;2.05;;;1.95;;
14760;SDS011;7472;45.396;5.272;2023-10-19T04:53:39;3.70;;;1.75;;
14760;SDS011;7472;45.396;5.272;2023-10-19T04:56:08;2.60;;;1.80;;
14760;SDS011;7472;45.396;5.272;2023-10-19T04:58:37;1.85;;;1.75;;
14760;SDS011;7472;45.396;5.272;2023-10-19T05:01:05;1.25;;;1.15;;
14760;SDS011;7472;45.396;5.272;2023-10-19T05:03:32;1.05;;;1.02;;
14760;SDS011;7472;45.396;5.272;2023-10-19T05:06:00;2.53;;;1.40;;
14760;SDS011;7472;45.396;5.272;2023-10-19T05:08:27;1.52;;;1.33;;
14760;SDS011;7472;45.396;5.272;2023-10-19T05:10:55;2.40;;;1.50;;
14760;SDS011;7472;45.396;5.272;2023-10-19T05:13:25;2.95;;;2.10;;
14760;SDS011;7472;45.396;5.272;2023-10-19T05:15:53;3.08;;;1.83;;
14760;SDS011;7472;45.396;5.272;2023-10-19T05:18:21;2.20;;;2.00;;
14760;SDS011;7472;45.396;5.272;2023-10-19T05:20:49;3.97;;;3.28;;
14760;SDS011;7472;45.396;5.272;2023-10-19T05:23:20;3.92;;;3.10;;
14760;SDS011;7472;45.396;5.272;2023-10-19T05:25:49;3.83;;;2.58;;
14760;SDS011;7472;45.396;5.272;2023-10-19T05:28:17;2.97;;;2.45;;
14760;SDS011;7472;45.396;5.272;2023-10-19T05:30:48;4.97;;;2.85;;
14760;SDS011;7472;45.396;5.272;2023-10-19T05:33:16;3.08;;;2.75;;
14760;SDS011;7472;45.396;5.272;2023-10-19T05:35:46;3.47;;;2.63;;
14760;SDS011;7472;45.396;5.272;2023-10-19T05:38:13;3.50;;;2.65;;
14760;SDS011;7472;45.396;5.272;2023-10-19T05:40:41;3.60;;;2.60;;
14760;SDS011;7472;45.396;5.272;2023-10-19T05:43:10;4.80;;;2.80;;
14760;SDS011;7472;45.396;5.272;2023-10-19T05:45:37;3.38;;;3.00;;
14760;SDS011;7472;45.396;5.272;2023-10-19T05:48:07;3.70;;;3.22;;
14760;SDS011;7472;45.396;5.272;2023-10-19T05:50:34;2.88;;;2.63;;
14760;SDS011;7472;45.396;5.272;2023-10-19T05:53:02;4.47;;;2.90;;
14760;SDS011;7472;45.396;5.272;2023-10-19T05:55:30;5.15;;;3.08;;
14760;SDS011;7472;45.396;5.272;2023-10-19T05:57:58;4.93;;;3.03;;
14760;SDS011;7472;45.396;5.272;2023-10-19T06:00:26;5.35;;;2.83;;
14760;SDS011;7472;45.396;5.272;2023-10-19T06:02:55;5.35;;;3.30;;
14760;SDS011;7472;45.396;5.272;2023-10-19T06:05:26;5.28;;;3.30;;
14760;SDS011;7472;45.396;5.272;2023-10-19T06:07:55;3.45;;;2.92;;
14760;SDS011;7472;45.396;5.272;2023-10-19T06:10:24;3.53;;;3.00;;
14760;SDS011;7472;45.396;5.272;2023-10-19T06:12:52;2.90;;;2.58;;
14760;SDS011;7472;45.396;5.272;2023-10-19T06:15:20;4.47;;;3.55;;
14760;SDS011;7472;45.396;5.272;2023-10-19T06:17:48;4.65;;;3.30;;
14760;SDS011;7472;45.396;5.272;2023-10-19T06:20:16;4.65;;;3.70;;
14760;SDS011;7472;45.396;5.272;2023-10-19T06:22:51;4.60;;;3.63;;
14760;SDS011;7472;45.396;5.272;2023-10-19T06:25:19;4.68;;;3.63;;
14760;SDS011;7472;45.396;5.272;2023-10-19T06:27:46;4.03;;;3.25;;
14760;SDS011;7472;45.396;5.272;2023-10-19T06:30:14;4.97;;;3.10;;
14760;SDS011;7472;45.396;5.272;2023-10-19T06:32:47;3.90;;;3.42;;
14760;SDS011;7472;45.396;5.272;2023-10-19T06:35:15;4.10;;;3.78;;
14760;SDS011;7472;45.396;5.272;2023-10-19T06:37:43;6.65;;;3.97;;
14760;SDS011;7472;45.396;5.272;2023-10-19T06:40:12;4.18;;;3.78;;
14760;SDS011;7472;45.396;5.272;2023-10-19T06:42:41;4.40;;;4.00;;
14760;SDS011;7472;45.396;5.272;2023-10-19T06:45:10;8.50;;;4.10;;
14760;SDS011;7472;45.396;5.272;2023-10-19T06:47:39;6.25;;;3.97;;
14760;SDS011;7472;45.396;5.272;2023-10-19T06:50:08;4.25;;;3.28;;
14760;SDS011;7472;45.396;5.272;2023-10-19T06:52:36;3.97;;;3.60;;
14760;SDS011;7472;45.396;5.272;2023-10-19T06:55:04;5.18;;;4.03;;
14760;SDS011;7472;45.396;5.272;2023-10-19T06:57:34;4.22;;;3.20;;
14760;SDS011;7472;45.396;5.272;2023-10-19T07:00:01;3.20;;;2.53;;
14760;SDS011;7472;45.396;5.272;2023-10-19T07:02:39;3.58;;;2.58;;
14760;SDS011;7472;45.396;5.272;2023-10-19T07:05:07;3.03;;;2.70;;
14760;SDS011;7472;45.396;5.272;2023-10-19T07:07:38;2.88;;;2.38;;
14760;SDS011;7472;45.396;5.272;2023-10-19T07:10:06;2.70;;;2.50;;
14760;SDS011;7472;45.396;5.272;2023-10-19T07:12:36;2.85;;;2.65;;
14760;SDS011;7472;45.396;5.272;2023-10-19T07:15:04;2.90;;;2.45;;
14760;SDS011;7472;45.396;5.272;2023-10-19T07:17:32;2.70;;;2.50;;
14760;SDS011;7472;45.396;5.272;2023-10-19T07:20:00;6.65;;;2.67;;
14760;SDS011;7472;45.396;5.272;2023-10-19T07:22:31;2.80;;;2.50;;
14760;SDS011;7472;45.396;5.272;2023-10-19T07:24:58;2.78;;;2.13;;
14760;SDS011;7472;45.396;5.272;2023-10-19T07:27:27;2.45;;;1.65;;
14760;SDS011;7472;45.396;5.272;2023-10-19T07:29:56;3.67;;;1.30;;
14760;SDS011;7472;45.396;5.272;2023-10-19T07:32:24;3.97;;;1.95;;
14760;SDS011;7472;45.396;5.272;2023-10-19T07:34:53;1.55;;;1.45;;
14760;SDS011;7472;45.396;5.272;2023-10-19T07:37:21;2.15;;;1.42;;
14760;SDS011;7472;45.396;5.272;2023-10-19T07:39:48;2.72;;;1.55;;
14760;SDS011;7472;45.396;5.272;2023-10-19T07:42:17;2.88;;;1.83;;
14760;SDS011;7472;45.396;5.272;2023-10-19T07:44:46;3.17;;;1.50;;
14760;SDS011;7472;45.396;5.272;2023-10-19T07:47:15;2.15;;;1.38;;
14760;SDS011;7472;45.396;5.272;2023-10-19T07:49:43;2.65;;;1.10;;
14760;SDS011;7472;45.396;5.272;2023-10-19T07:52:13;2.88;;;1.23;;
14760;SDS011;7472;45.396;5.272;2023-10-19T07:54:40;1.17;;;1.10;;
14760;SDS011;7472;45.396;5.272;2023-10-19T07:57:07;1.67;;;1.20;;
14760;SDS011;7472;45.396;5.272;2023-10-19T07:59:37;1.38;;;1.17;;
14760;SDS011;7472;45.396;5.272;2023-10-19T08:02:05;3.08;;;1.13;;
14760;SDS011;7472;45.396;5.272;2023-10-19T08:04:35;1.15;;;1.05;;
14760;SDS011;7472;45.396;5.272;2023-10-19T08:07:02;2.45;;;1.60;;
14760;SDS011;7472;45.396;5.272;2023-10-19T08:09:30;1.98;;;1.40;;
14760;SDS011;7472;45.396;5.272;2023-10-19T08:12:00;2.05;;;1.67;;
14760;SDS011;7472;45.396;5.272;2023-10-19T08:14:30;2.10;;;1.90;;
14760;SDS011;7472;45.396;5.272;2023-10-19T08:16:57;1.80;;;1.65;;
14760;SDS011;7472;45.396;5.272;2023-10-19T08:19:24;2.70;;;1.95;;
14760;SDS011;7472;45.396;5.272;2023-10-19T08:21:54;7.22;;;2.70;;
14760;SDS011;7472;45.396;5.272;2023-10-19T08:24:21;4.70;;;3.08;;
14760;SDS011;7472;45.396;5.272;2023-10-19T08:26:49;4.03;;;2.95;;
14760;SDS011;7472;45.396;5.272;2023-10-19T08:29:17;3.33;;;3.03;;
14760;SDS011;7472;45.396;5.272;2023-10-19T08:31:44;4.78;;;2.60;;
14760;SDS011;7472;45.396;5.272;2023-10-19T08:34:12;2.88;;;2.42;;
14760;SDS011;7472;45.396;5.272;2023-10-19T08:36:40;3.42;;;2.28;;
14760;SDS011;7472;45.396;5.272;2023-10-19T08:39:09;3.05;;;2.60;;
14760;SDS011;7472;45.396;5.272;2023-10-19T08:41:39;2.38;;;1.80;;
14760;SDS011;7472;45.396;5.272;2023-10-19T08:44:08;2.63;;;1.77;;
14760;SDS011;7472;45.396;5.272;2023-10-19T08:46:37;4.50;;;1.95;;
14760;SDS011;7472;45.396;5.272;2023-10-19T08:49:06;4.53;;;1.70;;
14760;SDS011;7472;45.396;5.272;2023-10-19T08:51:36;2.88;;;1.70;;
14760;SDS011;7472;45.396;5.272;2023-10-19T08:54:03;2.08;;;1.30;;
14760;SDS011;7472;45.396;5.272;2023-10-19T08:56:33;2.47;;;1.48;;
14760;SDS011;7472;45.396;5.272;2023-10-19T08:59:01;2.03;;;1.40;;
14760;SDS011;7472;45.396;5.272;2023-10-19T09:01:28;3.63;;;2.45;;
14760;SDS011;7472;45.396;5.272;2023-10-19T09:03:56;4.50;;;2.47;;
14760;SDS011;7472;45.396;5.272;2023-10-19T09:06:24;3.53;;;2.80;;
14760;SDS011;7472;45.396;5.272;2023-10-19T09:08:53;5.65;;;2.60;;
14760;SDS011;7472;45.396;5.272;2023-10-19T09:11:23;3.13;;;2.15;;
14760;SDS011;7472;45.396;5.272;2023-10-19T09:13:52;4.43;;;2.00;;
14760;SDS011;7472;45.396;5.272;2023-10-19T09:16:20;2.20;;;2.00;;
14760;SDS011;7472;45.396;5.272;2023-10-19T09:18:48;4.03;;;2.25;;
14760;SDS011;7472;45.396;5.272;2023-10-19T09:21:16;5.43;;;1.85;;
14760;SDS011;7472;45.396;5.272;2023-10-19T09:23:54;3.15;;;1.90;;
14760;SDS011;7472;45.396;5.272;2023-10-19T09:26:22;2.40;;;2.20;;
14760;SDS011;7472;45.396;5.272;2023-10-19T09:28:52;3.20;;;2.63;;
14760;SDS011;7472;45.396;5.272;2023-10-19T09:31:20;4.15;;;2.83;;
14760;SDS011;7472;45.396;5.272;2023-10-19T09:33:49;3.85;;;2.90;;
14760;SDS011;7472;45.396;5.272;2023-10-19T09:36:18;4.40;;;3.53;;
14760;SDS011;7472;45.396;5.272;2023-10-19T09:38:49;3.58;;;3.38;;
14760;SDS011;7472;45.396;5.272;2023-10-19T09:41:17;6.18;;;3.97;;
14760;SDS011;7472;45.396;5.272;2023-10-19T09:43:45;5.10;;;4.60;;
14760;SDS011;7472;45.396;5.272;2023-10-19T09:46:20;4.30;;;3.97;;
14760;SDS011;7472;45.396;5.272;2023-10-19T09:48:48;4.53;;;4.13;;
14760;SDS011;7472;45.396;5.272;2023-10-19T09:51:16;5.10;;;4.47;;
14760;SDS011;7472;45.396;5.272;2023-10-19T09:53:45;8.55;;;5.97;;
14760;SDS011;7472;45.396;5.272;2023-10-19T09:56:15;6.82;;;5.18;;
14760;SDS011;7472;45.396;5.272;2023-10-19T09:58:46;5.80;;;4.30;;
14760;SDS011;7472;45.396;5.272;2023-10-19T10:01:15;4.35;;;4.05;;
14760;SDS011;7472;45.396;5.272;2023-10-19T10:03:49;4.97;;;4.57;;
14760;SDS011;7472;45.396;5.272;2023-10-19T10:06:17;5.65;;;4.68;;
14760;SDS011;7472;45.396;5.272;2023-10-19T10:08:45;4.68;;;4.28;;
14760;SDS011;7472;45.396;5.272;2023-10-19T10:11:15;4.68;;;4.07;;
14760;SDS011;7472;45.396;5.272;2023-10-19T10:13:43;4.57;;;4.18;;
14760;SDS011;7472;45.396;5.272;2023-10-19T10:16:12;5.95;;;4.25;;
14760;SDS011;7472;45.396;5.272;2023-10-19T10:18:41;4.13;;;3.58;;
14760;SDS011;7472;45.396;5.272;2023-10-19T10:21:14;4.53;;;3.85;;
14760;SDS011;7472;45.396;5.272;2023-10-19T10:23:42;4.85;;;3.72;;
14760;SDS011;7472;45.396;5.272;2023-10-19T10:26:10;4.15;;;3.35;;
14760;SDS011;7472;45.396;5.272;2023-10-19T10:28:39;3.58;;;3.28;;
14760;SDS011;7472;45.396;5.272;2023-10-19T10:31:14;4.22;;;2.88;;
14760;SDS011;7472;45.396;5.272;2023-10-19T10:33:43;2.83;;;2.55;;
14760;SDS011;7472;45.396;5.272;2023-10-19T10:36:11;4.90;;;2.10;;
14760;SDS011;7472;45.396;5.272;2023-10-19T10:38:40;4.50;;;2.63;;
14760;SDS011;7472;45.396;5.272;2023-10-19T10:41:08;4.63;;;2.25;;
14760;SDS011;7472;45.396;5.272;2023-10-19T10:43:51;4.25;;;2.47;;
14760;SDS011;7472;45.396;5.272;2023-10-19T10:46:19;7.20;;;2.90;;
14760;SDS011;7472;45.396;5.272;2023-10-19T10:48:47;3.78;;;2.10;;
14760;SDS011;7472;45.396;5.272;2023-10-19T10:51:16;3.00;;;1.75;;
14760;SDS011;7472;45.396;5.272;2023-10-19T10:53:45;4.80;;;2.63;;
14760;SDS011;7472;45.396;5.272;2023-10-19T10:56:13;4.97;;;2.20;;
14760;SDS011;7472;45.396;5.272;2023-10-19T10:58:40;4.75;;;2.20;;
14760;SDS011;7472;45.396;5.272;2023-10-19T11:01:08;5.07;;;2.22;;
14760;SDS011;7472;45.396;5.272;2023-10-19T11:03:36;3.38;;;2.13;;
14760;SDS011;7472;45.396;5.272;2023-10-19T11:06:04;3.97;;;2.20;;
14760;SDS011;7472;45.396;5.272;2023-10-19T11:08:33;3.00;;;2.20;;
14760;SDS011;7472;45.396;5.272;2023-10-19T11:11:06;3.38;;;1.95;;
14760;SDS011;7472;45.396;5.272;2023-10-19T11:13:36;5.50;;;1.67;;
14760;SDS011;7472;45.396;5.272;2023-10-19T11:16:04;4.07;;;2.83;;
14760;SDS011;7472;45.396;5.272;2023-10-19T11:18:32;3.80;;;2.50;;
14760;SDS011;7472;45.396;5.272;2023-10-19T11:21:01;3.40;;;1.65;;
14760;SDS011;7472;45.396;5.272;2023-10-19T11:23:38;3.55;;;1.98;;
14760;SDS011;7472;45.396;5.272;2023-10-19T11:26:07;7.05;;;1.50;;
14760;SDS011;7472;45.396;5.272;2023-10-19T11:28:36;3.20;;;1.65;;
14760;SDS011;7472;45.396;5.272;2023-10-19T11:31:11;2.53;;;1.67;;
14760;SDS011;7472;45.396;5.272;2023-10-19T11:33:39;5.80;;;1.90;;
14760;SDS011;7472;45.396;5.272;2023-10-19T11:36:08;3.30;;;1.92;;
14760;SDS011;7472;45.396;5.272;2023-10-19T11:38:37;5.95;;;1.70;;
14760;SDS011;7472;45.396;5.272;2023-10-19T11:41:05;2.97;;;2.17;;
14760;SDS011;7472;45.396;5.272;2023-10-19T11:43:34;2.83;;;1.80;;
14760;SDS011;7472;45.396;5.272;2023-10-19T11:46:01;2.53;;;1.88;;
14760;SDS011;7472;45.396;5.272;2023-10-19T11:48:30;4.07;;;1.55;;
14760;SDS011;7472;45.396;5.272;2023-10-19T11:50:58;4.53;;;1.63;;
14760;SDS011;7472;45.396;5.272;2023-10-19T11:53:25;2.47;;;1.30;;
14760;SDS011;7472;45.396;5.272;2023-10-19T11:55:58;4.10;;;1.52;;
14760;SDS011;7472;45.396;5.272;2023-10-19T11:58:25;4.15;;;1.40;;
14760;SDS011;7472;45.396;5.272;2023-10-19T12:00:55;4.07;;;1.88;;
14760;SDS011;7472;45.396;5.272;2023-10-19T12:03:22;2.47;;;1.48;;
14760;SDS011;7472;45.396;5.272;2023-10-19T12:05:50;3.80;;;1.30;;
14760;SDS011;7472;45.396;5.272;2023-10-19T12:08:18;4.75;;;1.45;;
14760;SDS011;7472;45.396;5.272;2023-10-19T12:10:46;2.17;;;1.30;;
14760;SDS011;7472;45.396;5.272;2023-10-19T12:13:13;1.83;;;1.48;;
14760;SDS011;7472;45.396;5.272;2023-10-19T12:15:41;3.80;;;1.40;;
14760;SDS011;7472;45.396;5.272;2023-10-19T12:18:18;3.63;;;1.50;;
14760;SDS011;7472;45.396;5.272;2023-10-19T12:20:45;2.85;;;1.48;;
14760;SDS011;7472;45.396;5.272;2023-10-19T12:23:13;2.83;;;1.35;;
14760;SDS011;7472;45.396;5.272;2023-10-19T12:25:40;4.47;;;1.52;;
14760;SDS011;7472;45.396;5.272;2023-10-19T12:28:08;7.15;;;1.83;;
14760;SDS011;7472;45.396;5.272;2023-10-19T12:30:40;6.18;;;1.80;;
14760;SDS011;7472;45.396;5.272;2023-10-19T12:33:07;4.53;;;1.38;;
14760;SDS011;7472;45.396;5.272;2023-10-19T12:35:39;3.33;;;1.50;;
14760;SDS011;7472;45.396;5.272;2023-10-19T12:38:17;4.45;;;1.40;;
14760;SDS011;7472;45.396;5.272;2023-10-19T12:40:46;6.25;;;1.73;;
14760;SDS011;7472;45.396;5.272;2023-10-19T12:43:13;2.20;;;1.40;;
14760;SDS011;7472;45.396;5.272;2023-10-19T12:45:43;2.67;;;1.40;;
14760;SDS011;7472;45.396;5.272;2023-10-19T12:48:16;3.35;;;1.50;;
14760;SDS011;7472;45.396;5.272;2023-10-19T12:50:45;4.00;;;1.42;;
14760;SDS011;7472;45.396;5.272;2023-10-19T12:53:12;5.40;;;1.77;;
14760;SDS011;7472;45.396;5.272;2023-10-19T12:55:40;4.97;;;1.48;;
14760;SDS011;7472;45.396;5.272;2023-10-19T12:58:08;3.17;;;1.60;;
14760;SDS011;7472;45.396;5.272;2023-10-19T13:00:37;3.22;;;1.20;;
14760;SDS011;7472;45.396;5.272;2023-10-19T13:03:09;2.85;;;1.30;;
14760;SDS011;7472;45.396;5.272;2023-10-19T13:05:39;4.72;;;1.65;;
14760;SDS011;7472;45.396;5.272;2023-10-19T13:08:08;2.90;;;1.27;;
14760;SDS011;7472;45.396;5.272;2023-10-19T13:10:38;3.10;;;1.30;;
14760;SDS011;7472;45.396;5.272;2023-10-19T13:13:07;4.80;;;1.80;;
14760;SDS011;7472;45.396;5.272;2023-10-19T13:15:37;6.20;;;2.05;;
14760;SDS011;7472;45.396;5.272;2023-10-19T13:18:05;7.00;;;1.88;;
14760;SDS011;7472;45.396;5.272;2023-10-19T13:20:34;5.47;;;1.58;;
14760;SDS011;7472;45.396;5.272;2023-10-19T13:23:02;2.92;;;1.08;;
14760;SDS011;7472;45.396;5.272;2023-10-19T13:25:32;6.40;;;1.48;;
14760;SDS011;7472;45.396;5.272;2023-10-19T13:28:11;4.50;;;1.42;;
14760;SDS011;7472;45.396;5.272;2023-10-19T13:30:39;5.10;;;1.42;;
14760;SDS011;7472;45.396;5.272;2023-10-19T13:33:07;6.07;;;1.30;;
14760;SDS011;7472;45.396;5.272;2023-10-19T13:35:35;3.08;;;1.02;;
14760;SDS011;7472;45.396;5.272;2023-10-19T13:38:03;8.20;;;1.73;;
14760;SDS011;7472;45.396;5.272;2023-10-19T13:40:33;4.18;;;1.45;;
14760;SDS011;7472;45.396;5.272;2023-10-19T13:43:01;3.70;;;1.33;;
14760;SDS011;7472;45.396;5.272;2023-10-19T13:45:32;4.85;;;1.88;;
14760;SDS011;7472;45.396;5.272;2023-10-19T13:48:00;4.28;;;1.50;;
14760;SDS011;7472;45.396;5.272;2023-10-19T13:50:28;5.97;;;1.95;;
14760;SDS011;7472;45.396;5.272;2023-10-19T13:52:56;3.92;;;1.02;;
14760;SDS011;7472;45.396;5.272;2023-10-19T13:55:24;4.88;;;1.73;;
14760;SDS011;7472;45.396;5.272;2023-10-19T13:57:54;6.00;;;1.73;;
14760;SDS011;7472;45.396;5.272;2023-10-19T14:00:22;6.45;;;1.77;;
14760;SDS011;7472;45.396;5.272;2023-10-19T14:02:50;10.40;;;1.70;;
14760;SDS011;7472;45.396;5.272;2023-10-19T14:05:19;6.57;;;1.70;;
14760;SDS011;7472;45.396;5.272;2023-10-19T14:07:49;4.63;;;1.52;;
14760;SDS011;7472;45.396;5.272;2023-10-19T14:10:17;2.88;;;1.50;;
14760;SDS011;7472;45.396;5.272;2023-10-19T14:12:45;4.65;;;1.63;;
14760;SDS011;7472;45.396;5.272;2023-10-19T14:15:15;7.35;;;2.03;;
14760;SDS011;7472;45.396;5.272;2023-10-19T14:17:43;5.53;;;1.90;;
14760;SDS011;7472;45.396;5.272;2023-10-19T14:20:11;2.80;;;1.48;;
14760;SDS011;7472;45.396;5.272;2023-10-19T14:22:39;6.47;;;1.60;;
14760;SDS011;7472;45.396;5.272;2023-10-19T14:25:07;3.72;;;1.83;;
14760;SDS011;7472;45.396;5.272;2023-10-19T14:27:38;5.43;;;2.65;;
14760;SDS011;7472;45.396;5.272;2023-10-19T14:30:06;7.57;;;1.90;;
14760;SDS011;7472;45.396;5.272;2023-10-19T14:32:36;7.88;;;1.90;;
14760;SDS011;7472;45.396;5.272;2023-10-19T14:35:04;5.20;;;1.75;;
14760;SDS011;7472;45.396;5.272;2023-10-19T14:37:35;6.90;;;1.52;;
14760;SDS011;7472;45.396;5.272;2023-10-19T14:40:04;5.35;;;1.63;;
14760;SDS011;7472;45.396;5.272;2023-10-19T14:42:34;5.10;;;1.85;;
14760;SDS011;7472;45.396;5.272;2023-10-19T14:45:03;6.03;;;2.60;;
14760;SDS011;7472;45.396;5.272;2023-10-19T14:47:33;7.65;;;1.80;;
14760;SDS011;7472;45.396;5.272;2023-10-19T14:50:01;4.20;;;1.45;;
14760;SDS011;7472;45.396;5.272;2023-10-19T14:52:29;5.80;;;2.05;;
14760;SDS011;7472;45.396;5.272;2023-10-19T14:54:56;3.15;;;1.23;;
14760;SDS011;7472;45.396;5.272;2023-10-19T14:57:24;5.07;;;1.40;;
14760;SDS011;7472;45.396;5.272;2023-10-19T14:59:52;1.98;;;1.15;;
14760;SDS011;7472;45.396;5.272;2023-10-19T15:02:19;3.65;;;1.42;;
14760;SDS011;7472;45.396;5.272;2023-10-19T15:04:48;3.80;;;1.15;;
14760;SDS011;7472;45.396;5.272;2023-10-19T15:07:18;7.15;;;1.15;;
14760;SDS011;7472;45.396;5.272;2023-10-19T15:09:45;10.98;;;2.17;;
14760;SDS011;7472;45.396;5.272;2023-10-19T15:12:13;9.40;;;1.80;;